Startpagina
METAR-TAF:

METAR-TAF

Vliegvelden :

Clark International Airport

Angeles, Filippijnen

breedte: 15-11N, lengte: 120-33E, hoogte: 148 m

Actueel weer

Dit bericht is 24 minuten geleden gemaakt, om 06:00 UTC
Wind 4 kt uit het noorden
Temperatuur 27°C
Vochtigheid 94%
Druk 1003 hPa
Zicht: 7000 m
Verspreide wolken op 2000 ft
Geheel bewolkt op 9000 ft
lichte regen

METAR: RPLC 250600Z 36004KT 7000 SCT020 OVC090 27/26 Q1003 -RA RMK A2962

Tijdstip: 14:24 (06:24 UTC)

Verwachting

Dit bericht is 1 uur en het 24 minuten geleden gemaakt, om 05:00 UTC
Verwachting geldig van 25 om 06 UTC tot 26 om 12 UTC
Wind 8 kt uit het westzuidwesten
Zicht: 6000 m
Verspreide wolken op 1900 ft
Geheel bewolkt op 9000 ft
lichte regen
Tijdelijke
van 25 om 06 UTC tot 25 om 12 UTC
Wind 6 kt uit het westen
Zicht: 7000 m
Verspreide wolken op 2000 ft
Geheel bewolkt op 10000 ft
lichte regen,

TAF: RPLC 250500Z 2506/2612 24008KT 6000 -RA SCT019 OVC090 TX28/2506Z TN24/2521Z TEMPO 2506/2512 27006KT 7000 -RA SCT020 OVC100

Waarnemingen en weersverwachtingen van meer dan 4000 vliegvelden (METAR en TAF).

De beschikbare stations zijn de gele en rode punten op de kaart.

Ga met uw muis naar het station om de naam te zien.

Klik dan om waarnemingen en weersverwachtingen te zien.

kaart wijzigen: klik op de groene knoppen met een zwart kruis om in te zoomen, op de groene knop met een streepje om uit te zoomen of op de groene pijlen voor aangrenzende kaarten.


METAR-TAF: